Terminal Aerodrome Forecast
Issued by NWS

Home | Current Version | Previous Version | Text Only | Print | Product List | Glossary On
Versions: 1 2 3 4 5 6 7 8 9 10 11 12 13 14 15 16 17 18 19 20 21 22 23 24 25 26 27 28 29 30 31 32
000
FTUS44 KOUN 022340
TAFGAG
TAF
KGAG 022340Z 0300/0324 16010KT P6SM BKN150
     FM030600 18016G26KT P6SM BKN015
     FM031600 21015G25KT P6SM SCT020 BKN150
     FM032200 03012G20KT P6SM SCT015 BKN100=

USA.gov is the U.S. government's official web portal to all federal, state and local government web resources and services.